sensor_id;sensor_type;location;lat;lon;timestamp;noise_LAeq;noise_LA_min;noise_LA_max;noise_LA01;noise_LA95
29182;Laerm;19872;48.800;8.996;2023-05-07T00:00:52;53.07;39.45;63.57;;
29182;Laerm;19872;48.800;8.996;2023-05-07T00:03:18;53.46;38.43;65.12;;
29182;Laerm;19872;48.800;8.996;2023-05-07T00:05:45;52.45;40.30;62.52;;
29182;Laerm;19872;48.800;8.996;2023-05-07T00:08:11;45.51;38.85;58.39;;
29182;Laerm;19872;48.800;8.996;2023-05-07T00:10:37;51.33;37.47;60.90;;
29182;Laerm;19872;48.800;8.996;2023-05-07T00:13:03;53.05;38.09;62.12;;
29182;Laerm;19872;48.800;8.996;2023-05-07T00:15:29;41.46;38.25;47.57;;
29182;Laerm;19872;48.800;8.996;2023-05-07T00:17:55;53.87;39.49;64.95;;
29182;Laerm;19872;48.800;8.996;2023-05-07T00:20:20;50.59;39.45;61.09;;
29182;Laerm;19872;48.800;8.996;2023-05-07T00:22:46;52.79;40.64;61.55;;
29182;Laerm;19872;48.800;8.996;2023-05-07T00:25:12;46.71;38.95;58.02;;
29182;Laerm;19872;48.800;8.996;2023-05-07T00:27:38;53.61;40.71;63.57;;
29182;Laerm;19872;48.800;8.996;2023-05-07T00:30:04;51.84;39.48;61.19;;
29182;Laerm;19872;48.800;8.996;2023-05-07T00:32:30;52.45;37.67;61.69;;
29182;Laerm;19872;48.800;8.996;2023-05-07T00:34:56;47.63;37.19;60.98;;
29182;Laerm;19872;48.800;8.996;2023-05-07T00:37:22;51.96;35.88;62.23;;
29182;Laerm;19872;48.800;8.996;2023-05-07T00:39:48;50.56;37.00;60.44;;
29182;Laerm;19872;48.800;8.996;2023-05-07T00:42:14;52.56;37.22;63.23;;
29182;Laerm;19872;48.800;8.996;2023-05-07T00:44:41;44.65;35.80;54.32;;
29182;Laerm;19872;48.800;8.996;2023-05-07T00:47:07;50.42;35.93;63.68;;
29182;Laerm;19872;48.800;8.996;2023-05-07T00:49:42;50.99;37.66;61.92;;
29182;Laerm;19872;48.800;8.996;2023-05-07T00:52:09;48.59;37.27;61.15;;
29182;Laerm;19872;48.800;8.996;2023-05-07T00:54:36;50.57;34.62;61.39;;
29182;Laerm;19872;48.800;8.996;2023-05-07T00:57:03;49.47;34.68;60.04;;
29182;Laerm;19872;48.800;8.996;2023-05-07T00:59:30;45.12;35.80;56.62;;
29182;Laerm;19872;48.800;8.996;2023-05-07T01:01:56;49.78;36.05;60.83;;
29182;Laerm;19872;48.800;8.996;2023-05-07T01:04:22;51.01;34.74;62.02;;
29182;Laerm;19872;48.800;8.996;2023-05-07T01:06:47;54.95;37.08;64.34;;
29182;Laerm;19872;48.800;8.996;2023-05-07T01:09:14;50.14;36.47;61.55;;
29182;Laerm;19872;48.800;8.996;2023-05-07T01:11:40;49.54;36.35;61.89;;
29182;Laerm;19872;48.800;8.996;2023-05-07T01:14:06;45.11;37.09;53.93;;
29182;Laerm;19872;48.800;8.996;2023-05-07T01:16:32;48.31;36.32;60.05;;
29182;Laerm;19872;48.800;8.996;2023-05-07T01:18:58;50.51;37.65;62.75;;
29182;Laerm;19872;48.800;8.996;2023-05-07T01:21:25;46.46;36.52;59.13;;
29182;Laerm;19872;48.800;8.996;2023-05-07T01:23:51;40.14;36.50;49.14;;
29182;Laerm;19872;48.800;8.996;2023-05-07T01:26:17;49.55;37.51;59.81;;
29182;Laerm;19872;48.800;8.996;2023-05-07T01:28:45;40.43;35.71;53.86;;
29182;Laerm;19872;48.800;8.996;2023-05-07T01:31:10;37.17;34.24;47.92;;
29182;Laerm;19872;48.800;8.996;2023-05-07T01:33:38;53.44;37.16;66.55;;
29182;Laerm;19872;48.800;8.996;2023-05-07T01:36:06;49.28;37.33;60.97;;
29182;Laerm;19872;48.800;8.996;2023-05-07T01:38:33;47.42;35.02;60.97;;
29182;Laerm;19872;48.800;8.996;2023-05-07T01:41:00;48.70;33.94;62.51;;
29182;Laerm;19872;48.800;8.996;2023-05-07T01:43:26;53.36;33.86;62.37;;
29182;Laerm;19872;48.800;8.996;2023-05-07T01:45:53;52.61;34.12;66.56;;
29182;Laerm;19872;48.800;8.996;2023-05-07T01:48:20;39.56;34.83;46.95;;
29182;Laerm;19872;48.800;8.996;2023-05-07T01:50:46;40.46;36.84;47.38;;
29182;Laerm;19872;48.800;8.996;2023-05-07T01:53:12;46.79;35.83;58.46;;
29182;Laerm;19872;48.800;8.996;2023-05-07T01:55:38;37.85;34.79;44.38;;
29182;Laerm;19872;48.800;8.996;2023-05-07T01:58:05;49.65;35.78;64.02;;
29182;Laerm;19872;48.800;8.996;2023-05-07T02:00:31;38.41;35.03;46.45;;
29182;Laerm;19872;48.800;8.996;2023-05-07T02:02:57;50.20;34.60;64.28;;
29182;Laerm;19872;48.800;8.996;2023-05-07T02:05:23;52.52;38.63;62.22;;
29182;Laerm;19872;48.800;8.996;2023-05-07T02:07:49;43.61;35.98;57.92;;
29182;Laerm;19872;48.800;8.996;2023-05-07T02:10:15;51.02;36.53;61.91;;
29182;Laerm;19872;48.800;8.996;2023-05-07T02:12:41;52.38;35.93;61.48;;
29182;Laerm;19872;48.800;8.996;2023-05-07T02:15:08;49.74;35.58;63.55;;
29182;Laerm;19872;48.800;8.996;2023-05-07T02:17:34;45.50;35.66;63.70;;
29182;Laerm;19872;48.800;8.996;2023-05-07T02:20:00;49.00;36.08;61.82;;
29182;Laerm;19872;48.800;8.996;2023-05-07T02:22:26;46.92;35.47;57.66;;
29182;Laerm;19872;48.800;8.996;2023-05-07T02:24:52;52.64;34.12;67.52;;
29182;Laerm;19872;48.800;8.996;2023-05-07T02:27:17;48.93;34.50;58.68;;
29182;Laerm;19872;48.800;8.996;2023-05-07T02:29:43;46.29;35.09;58.62;;
29182;Laerm;19872;48.800;8.996;2023-05-07T02:32:09;47.30;34.31;60.10;;
29182;Laerm;19872;48.800;8.996;2023-05-07T02:34:35;36.24;32.87;41.63;;
29182;Laerm;19872;48.800;8.996;2023-05-07T02:37:01;51.11;34.77;60.40;;
29182;Laerm;19872;48.800;8.996;2023-05-07T02:39:27;46.78;36.07;56.09;;
29182;Laerm;19872;48.800;8.996;2023-05-07T02:41:52;40.65;35.32;53.91;;
29182;Laerm;19872;48.800;8.996;2023-05-07T02:44:18;49.20;36.60;61.95;;
29182;Laerm;19872;48.800;8.996;2023-05-07T02:46:44;50.94;36.02;62.39;;
29182;Laerm;19872;48.800;8.996;2023-05-07T02:49:10;44.65;35.93;61.19;;
29182;Laerm;19872;48.800;8.996;2023-05-07T02:51:36;49.94;36.28;62.18;;
29182;Laerm;19872;48.800;8.996;2023-05-07T02:54:02;47.76;35.35;62.93;;
29182;Laerm;19872;48.800;8.996;2023-05-07T02:56:28;48.76;36.27;65.40;;
29182;Laerm;19872;48.800;8.996;2023-05-07T02:58:54;50.92;36.44;64.68;;
29182;Laerm;19872;48.800;8.996;2023-05-07T03:01:19;50.59;38.46;64.43;;
29182;Laerm;19872;48.800;8.996;2023-05-07T03:03:45;52.56;39.57;67.49;;
29182;Laerm;19872;48.800;8.996;2023-05-07T03:06:11;50.87;40.01;65.74;;
29182;Laerm;19872;48.800;8.996;2023-05-07T03:08:37;51.22;39.85;64.94;;
29182;Laerm;19872;48.800;8.996;2023-05-07T03:11:03;54.23;41.70;66.98;;
29182;Laerm;19872;48.800;8.996;2023-05-07T03:13:29;53.70;42.33;63.25;;
29182;Laerm;19872;48.800;8.996;2023-05-07T03:15:55;53.69;43.04;62.16;;
29182;Laerm;19872;48.800;8.996;2023-05-07T03:18:21;49.04;41.53;59.57;;
29182;Laerm;19872;48.800;8.996;2023-05-07T03:20:47;50.74;41.68;60.54;;
29182;Laerm;19872;48.800;8.996;2023-05-07T03:23:13;52.16;42.51;61.17;;
29182;Laerm;19872;48.800;8.996;2023-05-07T03:25:39;51.53;40.81;61.22;;
29182;Laerm;19872;48.800;8.996;2023-05-07T03:28:05;52.08;40.90;61.91;;
29182;Laerm;19872;48.800;8.996;2023-05-07T03:30:31;50.58;40.72;63.64;;
29182;Laerm;19872;48.800;8.996;2023-05-07T03:32:57;53.18;40.48;64.57;;
29182;Laerm;19872;48.800;8.996;2023-05-07T03:35:23;50.75;41.63;58.99;;
29182;Laerm;19872;48.800;8.996;2023-05-07T03:37:48;46.86;39.91;56.78;;
29182;Laerm;19872;48.800;8.996;2023-05-07T03:40:14;50.01;41.49;60.70;;
29182;Laerm;19872;48.800;8.996;2023-05-07T03:42:40;54.73;42.72;66.11;;
29182;Laerm;19872;48.800;8.996;2023-05-07T03:45:06;52.57;41.20;62.04;;
29182;Laerm;19872;48.800;8.996;2023-05-07T03:47:32;54.37;39.23;63.42;;
29182;Laerm;19872;48.800;8.996;2023-05-07T03:49:58;53.41;38.46;64.47;;
29182;Laerm;19872;48.800;8.996;2023-05-07T03:52:24;45.38;39.52;56.38;;
29182;Laerm;19872;48.800;8.996;2023-05-07T03:54:51;52.59;39.23;62.87;;
29182;Laerm;19872;48.800;8.996;2023-05-07T03:57:17;45.69;39.53;56.57;;
29182;Laerm;19872;48.800;8.996;2023-05-07T03:59:43;45.28;39.29;52.35;;
29182;Laerm;19872;48.800;8.996;2023-05-07T04:02:09;52.62;39.88;61.68;;
29182;Laerm;19872;48.800;8.996;2023-05-07T04:04:35;52.47;39.20;62.36;;
29182;Laerm;19872;48.800;8.996;2023-05-07T04:07:01;53.08;39.68;64.83;;
29182;Laerm;19872;48.800;8.996;2023-05-07T04:09:26;50.29;38.13;63.43;;
29182;Laerm;19872;48.800;8.996;2023-05-07T04:11:52;53.16;38.70;69.55;;
29182;Laerm;19872;48.800;8.996;2023-05-07T04:14:18;44.23;37.58;60.23;;
29182;Laerm;19872;48.800;8.996;2023-05-07T04:16:44;49.53;38.04;56.79;;
29182;Laerm;19872;48.800;8.996;2023-05-07T04:19:10;47.88;37.95;58.82;;
29182;Laerm;19872;48.800;8.996;2023-05-07T04:21:36;48.67;37.95;61.24;;
29182;Laerm;19872;48.800;8.996;2023-05-07T04:24:05;49.35;36.99;60.28;;
29182;Laerm;19872;48.800;8.996;2023-05-07T04:26:30;47.33;37.81;58.70;;
29182;Laerm;19872;48.800;8.996;2023-05-07T04:28:56;50.28;39.48;63.93;;
29182;Laerm;19872;48.800;8.996;2023-05-07T04:31:24;50.50;40.83;60.19;;
29182;Laerm;19872;48.800;8.996;2023-05-07T04:33:50;50.22;40.84;58.82;;
29182;Laerm;19872;48.800;8.996;2023-05-07T04:36:16;52.19;40.88;64.14;;
29182;Laerm;19872;48.800;8.996;2023-05-07T04:38:42;52.35;40.90;60.29;;
29182;Laerm;19872;48.800;8.996;2023-05-07T04:41:08;49.81;38.77;60.60;;
29182;Laerm;19872;48.800;8.996;2023-05-07T04:43:34;50.36;39.81;61.94;;
29182;Laerm;19872;48.800;8.996;2023-05-07T04:46:00;51.08;41.48;60.34;;
29182;Laerm;19872;48.800;8.996;2023-05-07T04:48:26;47.78;38.97;57.97;;
29182;Laerm;19872;48.800;8.996;2023-05-07T04:50:52;51.20;38.97;60.83;;
29182;Laerm;19872;48.800;8.996;2023-05-07T04:53:18;54.02;39.74;62.66;;
29182;Laerm;19872;48.800;8.996;2023-05-07T04:55:44;50.69;39.22;62.05;;
29182;Laerm;19872;48.800;8.996;2023-05-07T04:58:10;53.63;39.66;63.00;;
29182;Laerm;19872;48.800;8.996;2023-05-07T05:00:37;52.84;39.66;61.88;;
29182;Laerm;19872;48.800;8.996;2023-05-07T05:03:03;50.04;39.29;60.87;;
29182;Laerm;19872;48.800;8.996;2023-05-07T05:05:30;52.01;39.66;67.72;;
29182;Laerm;19872;48.800;8.996;2023-05-07T05:07:56;51.82;39.80;66.78;;
29182;Laerm;19872;48.800;8.996;2023-05-07T05:10:22;53.11;39.43;67.35;;
29182;Laerm;19872;48.800;8.996;2023-05-07T05:12:47;53.95;39.27;69.22;;
29182;Laerm;19872;48.800;8.996;2023-05-07T05:15:13;54.12;39.14;69.17;;
29182;Laerm;19872;48.800;8.996;2023-05-07T05:17:40;55.47;38.21;68.38;;
29182;Laerm;19872;48.800;8.996;2023-05-07T05:20:06;55.19;39.90;69.12;;
29182;Laerm;19872;48.800;8.996;2023-05-07T05:22:32;56.20;41.96;69.27;;
29182;Laerm;19872;48.800;8.996;2023-05-07T05:24:58;49.37;39.71;62.31;;
29182;Laerm;19872;48.800;8.996;2023-05-07T05:27:24;52.22;40.71;62.99;;
29182;Laerm;19872;48.800;8.996;2023-05-07T05:29:49;53.30;38.88;63.01;;
29182;Laerm;19872;48.800;8.996;2023-05-07T05:32:15;53.72;40.25;63.22;;
29182;Laerm;19872;48.800;8.996;2023-05-07T05:34:41;47.01;39.68;57.47;;
29182;Laerm;19872;48.800;8.996;2023-05-07T05:37:07;51.38;40.53;59.40;;
29182;Laerm;19872;48.800;8.996;2023-05-07T05:39:33;49.10;42.30;60.09;;
29182;Laerm;19872;48.800;8.996;2023-05-07T05:41:59;52.49;40.67;64.70;;
29182;Laerm;19872;48.800;8.996;2023-05-07T05:44:24;54.12;42.33;61.96;;
29182;Laerm;19872;48.800;8.996;2023-05-07T05:46:50;49.84;40.20;60.91;;
29182;Laerm;19872;48.800;8.996;2023-05-07T05:49:16;50.66;40.85;61.92;;
29182;Laerm;19872;48.800;8.996;2023-05-07T05:51:42;57.69;43.06;66.69;;
29182;Laerm;19872;48.800;8.996;2023-05-07T05:54:08;53.11;40.58;63.46;;
29182;Laerm;19872;48.800;8.996;2023-05-07T05:56:34;48.63;39.32;58.29;;
29182;Laerm;19872;48.800;8.996;2023-05-07T05:59:03;53.31;41.37;61.81;;
29182;Laerm;19872;48.800;8.996;2023-05-07T06:01:29;51.22;41.08;61.50;;
29182;Laerm;19872;48.800;8.996;2023-05-07T06:03:55;52.11;39.87;64.24;;
29182;Laerm;19872;48.800;8.996;2023-05-07T06:06:21;56.55;42.39;65.58;;
29182;Laerm;19872;48.800;8.996;2023-05-07T06:08:47;52.43;40.56;63.35;;
29182;Laerm;19872;48.800;8.996;2023-05-07T06:11:13;54.66;39.80;70.05;;
29182;Laerm;19872;48.800;8.996;2023-05-07T06:13:39;53.91;39.90;64.81;;
29182;Laerm;19872;48.800;8.996;2023-05-07T06:16:05;51.47;39.79;62.22;;
29182;Laerm;19872;48.800;8.996;2023-05-07T06:18:31;52.29;41.03;63.80;;
29182;Laerm;19872;48.800;8.996;2023-05-07T06:20:56;51.57;39.51;59.79;;
29182;Laerm;19872;48.800;8.996;2023-05-07T06:23:22;52.56;40.73;63.98;;
29182;Laerm;19872;48.800;8.996;2023-05-07T06:25:49;52.96;41.92;63.17;;
29182;Laerm;19872;48.800;8.996;2023-05-07T06:28:15;53.95;41.13;62.92;;
29182;Laerm;19872;48.800;8.996;2023-05-07T06:30:41;54.86;41.38;61.61;;
29182;Laerm;19872;48.800;8.996;2023-05-07T06:33:07;52.22;41.57;62.49;;
29182;Laerm;19872;48.800;8.996;2023-05-07T06:35:33;54.48;42.12;62.79;;
29182;Laerm;19872;48.800;8.996;2023-05-07T06:37:59;55.94;42.14;64.39;;
29182;Laerm;19872;48.800;8.996;2023-05-07T06:40:25;54.84;41.17;68.68;;
29182;Laerm;19872;48.800;8.996;2023-05-07T06:42:51;54.84;42.83;64.20;;
29182;Laerm;19872;48.800;8.996;2023-05-07T06:45:17;60.32;45.07;75.41;;
29182;Laerm;19872;48.800;8.996;2023-05-07T06:47:43;58.58;44.65;68.73;;
29182;Laerm;19872;48.800;8.996;2023-05-07T06:50:09;51.00;41.76;59.74;;
29182;Laerm;19872;48.800;8.996;2023-05-07T06:52:35;54.83;42.42;62.52;;
29182;Laerm;19872;48.800;8.996;2023-05-07T06:55:01;54.60;40.79;63.51;;
29182;Laerm;19872;48.800;8.996;2023-05-07T06:57:27;56.09;43.74;63.08;;
29182;Laerm;19872;48.800;8.996;2023-05-07T06:59:52;57.22;41.00;69.51;;
29182;Laerm;19872;48.800;8.996;2023-05-07T07:02:18;56.11;39.39;65.13;;
29182;Laerm;19872;48.800;8.996;2023-05-07T07:04:44;58.50;43.28;70.59;;
29182;Laerm;19872;48.800;8.996;2023-05-07T07:07:10;59.51;45.16;67.17;;
29182;Laerm;19872;48.800;8.996;2023-05-07T07:09:36;56.73;43.76;63.81;;
29182;Laerm;19872;48.800;8.996;2023-05-07T07:12:02;59.11;45.73;65.49;;
29182;Laerm;19872;48.800;8.996;2023-05-07T07:14:28;58.11;40.63;65.76;;
29182;Laerm;19872;48.800;8.996;2023-05-07T07:16:54;55.10;39.87;64.07;;
29182;Laerm;19872;48.800;8.996;2023-05-07T07:19:20;58.47;45.85;63.93;;
29182;Laerm;19872;48.800;8.996;2023-05-07T07:21:46;55.66;41.47;65.05;;
29182;Laerm;19872;48.800;8.996;2023-05-07T07:24:12;58.16;41.74;64.09;;
29182;Laerm;19872;48.800;8.996;2023-05-07T07:26:38;58.89;46.51;66.88;;
29182;Laerm;19872;48.800;8.996;2023-05-07T07:29:05;59.99;45.94;69.35;;
29182;Laerm;19872;48.800;8.996;2023-05-07T07:31:32;57.04;41.12;64.75;;
29182;Laerm;19872;48.800;8.996;2023-05-07T07:33:57;59.17;48.44;66.07;;
29182;Laerm;19872;48.800;8.996;2023-05-07T07:36:23;61.67;44.64;73.73;;
29182;Laerm;19872;48.800;8.996;2023-05-07T07:38:50;56.38;39.94;63.26;;
29182;Laerm;19872;48.800;8.996;2023-05-07T07:41:16;59.15;40.96;67.93;;
29182;Laerm;19872;48.800;8.996;2023-05-07T07:43:42;59.94;42.87;67.02;;
29182;Laerm;19872;48.800;8.996;2023-05-07T07:46:08;58.28;43.88;65.99;;
29182;Laerm;19872;48.800;8.996;2023-05-07T07:48:35;61.16;46.65;66.15;;
29182;Laerm;19872;48.800;8.996;2023-05-07T07:51:01;57.98;43.07;75.00;;
29182;Laerm;19872;48.800;8.996;2023-05-07T07:53:26;67.46;44.68;85.26;;
29182;Laerm;19872;48.800;8.996;2023-05-07T07:55:52;67.63;43.64;86.94;;
29182;Laerm;19872;48.800;8.996;2023-05-07T07:58:18;59.31;44.38;75.48;;
29182;Laerm;19872;48.800;8.996;2023-05-07T08:00:44;65.71;41.78;86.35;;
29182;Laerm;19872;48.800;8.996;2023-05-07T08:03:10;72.48;39.38;92.36;;
29182;Laerm;19872;48.800;8.996;2023-05-07T08:05:36;59.04;44.92;74.93;;
29182;Laerm;19872;48.800;8.996;2023-05-07T08:08:03;58.40;42.84;64.40;;
29182;Laerm;19872;48.800;8.996;2023-05-07T08:10:29;58.05;42.60;63.00;;
29182;Laerm;19872;48.800;8.996;2023-05-07T08:12:58;56.30;39.90;63.68;;
29182;Laerm;19872;48.800;8.996;2023-05-07T08:15:24;57.04;42.30;65.55;;
29182;Laerm;19872;48.800;8.996;2023-05-07T08:17:50;56.44;42.52;64.11;;
29182;Laerm;19872;48.800;8.996;2023-05-07T08:20:16;57.75;41.90;67.07;;
29182;Laerm;19872;48.800;8.996;2023-05-07T08:22:42;56.64;41.94;63.01;;
29182;Laerm;19872;48.800;8.996;2023-05-07T08:25:08;59.53;38.87;68.83;;
29182;Laerm;19872;48.800;8.996;2023-05-07T08:27:34;57.38;39.33;64.61;;
29182;Laerm;19872;48.800;8.996;2023-05-07T08:30:00;56.70;37.21;64.97;;
29182;Laerm;19872;48.800;8.996;2023-05-07T08:32:26;54.75;35.92;63.49;;
29182;Laerm;19872;48.800;8.996;2023-05-07T08:34:52;58.46;41.80;65.76;;
29182;Laerm;19872;48.800;8.996;2023-05-07T08:37:18;56.22;38.39;64.10;;
29182;Laerm;19872;48.800;8.996;2023-05-07T08:39:44;59.62;38.98;72.20;;
29182;Laerm;19872;48.800;8.996;2023-05-07T08:42:10;59.22;41.64;66.46;;
29182;Laerm;19872;48.800;8.996;2023-05-07T08:44:36;59.27;44.57;66.26;;
29182;Laerm;19872;48.800;8.996;2023-05-07T08:47:04;57.46;42.00;71.33;;
29182;Laerm;19872;48.800;8.996;2023-05-07T08:49:31;58.66;51.78;64.51;;
29182;Laerm;19872;48.800;8.996;2023-05-07T08:51:58;56.34;38.90;62.99;;
29182;Laerm;19872;48.800;8.996;2023-05-07T08:54:24;59.39;40.88;65.01;;
29182;Laerm;19872;48.800;8.996;2023-05-07T08:56:50;58.45;43.39;64.97;;
29182;Laerm;19872;48.800;8.996;2023-05-07T08:59:16;57.73;42.09;62.97;;
29182;Laerm;19872;48.800;8.996;2023-05-07T09:01:42;58.06;38.95;73.67;;
29182;Laerm;19872;48.800;8.996;2023-05-07T09:04:08;58.12;38.98;65.36;;
29182;Laerm;19872;48.800;8.996;2023-05-07T09:06:34;58.55;44.34;63.89;;
29182;Laerm;19872;48.800;8.996;2023-05-07T09:09:00;59.20;42.32;65.10;;
29182;Laerm;19872;48.800;8.996;2023-05-07T09:11:26;59.13;42.65;68.39;;
29182;Laerm;19872;48.800;8.996;2023-05-07T09:13:55;59.31;38.07;67.23;;
29182;Laerm;19872;48.800;8.996;2023-05-07T09:16:23;58.14;45.26;65.22;;
29182;Laerm;19872;48.800;8.996;2023-05-07T09:18:52;62.40;41.07;74.65;;
29182;Laerm;19872;48.800;8.996;2023-05-07T09:21:19;58.81;39.86;65.66;;
29182;Laerm;19872;48.800;8.996;2023-05-07T09:23:45;56.02;40.02;63.50;;
29182;Laerm;19872;48.800;8.996;2023-05-07T09:26:11;59.84;49.77;72.82;;
29182;Laerm;19872;48.800;8.996;2023-05-07T09:28:40;58.90;43.59;64.99;;
29182;Laerm;19872;48.800;8.996;2023-05-07T09:31:07;58.25;40.22;66.55;;
29182;Laerm;19872;48.800;8.996;2023-05-07T09:33:34;58.24;41.35;69.41;;
29182;Laerm;19872;48.800;8.996;2023-05-07T09:36:06;58.90;42.58;67.06;;
29182;Laerm;19872;48.800;8.996;2023-05-07T09:38:35;61.83;46.13;78.84;;
29182;Laerm;19872;48.800;8.996;2023-05-07T09:41:05;57.16;41.19;64.89;;
29182;Laerm;19872;48.800;8.996;2023-05-07T09:43:32;58.73;42.17;67.23;;
29182;Laerm;19872;48.800;8.996;2023-05-07T09:46:00;57.87;43.26;66.34;;
29182;Laerm;19872;48.800;8.996;2023-05-07T09:48:27;59.94;43.41;67.86;;
29182;Laerm;19872;48.800;8.996;2023-05-07T09:50:55;60.54;43.94;67.02;;
29182;Laerm;19872;48.800;8.996;2023-05-07T09:53:25;60.27;46.67;72.05;;
29182;Laerm;19872;48.800;8.996;2023-05-07T09:55:51;63.65;48.51;73.42;;
29182;Laerm;19872;48.800;8.996;2023-05-07T09:58:18;60.46;45.53;65.92;;
29182;Laerm;19872;48.800;8.996;2023-05-07T10:00:44;58.38;42.80;69.95;;
29182;Laerm;19872;48.800;8.996;2023-05-07T10:03:10;61.70;53.65;70.72;;
29182;Laerm;19872;48.800;8.996;2023-05-07T10:05:37;61.96;48.03;75.26;;
29182;Laerm;19872;48.800;8.996;2023-05-07T10:08:03;59.64;48.01;72.67;;
29182;Laerm;19872;48.800;8.996;2023-05-07T10:10:30;78.81;47.28;96.71;;
29182;Laerm;19872;48.800;8.996;2023-05-07T10:12:56;59.99;41.59;68.31;;
29182;Laerm;19872;48.800;8.996;2023-05-07T10:15:22;60.32;42.02;68.92;;
29182;Laerm;19872;48.800;8.996;2023-05-07T10:17:49;58.65;43.89;65.70;;
29182;Laerm;19872;48.800;8.996;2023-05-07T10:20:17;59.53;43.27;66.69;;
29182;Laerm;19872;48.800;8.996;2023-05-07T10:22:44;58.94;40.47;64.99;;
29182;Laerm;19872;48.800;8.996;2023-05-07T10:25:14;57.46;38.60;66.65;;
29182;Laerm;19872;48.800;8.996;2023-05-07T10:27:41;59.57;43.13;67.37;;
29182;Laerm;19872;48.800;8.996;2023-05-07T10:32:53;59.01;44.38;68.58;;
29182;Laerm;19872;48.800;8.996;2023-05-07T10:35:21;63.47;41.70;78.61;;
29182;Laerm;19872;48.800;8.996;2023-05-07T10:37:48;59.24;43.49;66.91;;
29182;Laerm;19872;48.800;8.996;2023-05-07T10:40:15;63.14;47.22;85.90;;
29182;Laerm;19872;48.800;8.996;2023-05-07T10:43:01;60.99;41.98;69.38;;
29182;Laerm;19872;48.800;8.996;2023-05-07T10:45:28;58.80;42.35;65.83;;
29182;Laerm;19872;48.800;8.996;2023-05-07T10:48:10;59.70;46.06;64.90;;
29182;Laerm;19872;48.800;8.996;2023-05-07T10:50:36;60.54;44.73;68.97;;
29182;Laerm;19872;48.800;8.996;2023-05-07T10:55:47;61.36;49.98;70.00;;
29182;Laerm;19872;48.800;8.996;2023-05-07T10:58:26;58.07;43.00;65.64;;
29182;Laerm;19872;48.800;8.996;2023-05-07T11:01:01;59.80;44.84;67.75;;
29182;Laerm;19872;48.800;8.996;2023-05-07T11:03:27;58.86;42.24;66.95;;
29182;Laerm;19872;48.800;8.996;2023-05-07T11:06:09;59.38;48.64;66.13;;
29182;Laerm;19872;48.800;8.996;2023-05-07T11:11:16;60.86;45.53;74.14;;
29182;Laerm;19872;48.800;8.996;2023-05-07T11:13:43;61.00;45.28;67.53;;
29182;Laerm;19872;48.800;8.996;2023-05-07T11:16:22;61.07;42.93;67.64;;
29182;Laerm;19872;48.800;8.996;2023-05-07T11:18:48;58.75;42.86;64.70;;
29182;Laerm;19872;48.800;8.996;2023-05-07T11:21:34;57.82;40.46;66.10;;
29182;Laerm;19872;48.800;8.996;2023-05-07T11:24:00;59.84;37.93;71.15;;
29182;Laerm;19872;48.800;8.996;2023-05-07T11:26:27;60.06;44.39;65.54;;
29182;Laerm;19872;48.800;8.996;2023-05-07T11:28:53;59.04;46.78;69.06;;
29182;Laerm;19872;48.800;8.996;2023-05-07T11:31:20;60.76;47.48;70.23;;
29182;Laerm;19872;48.800;8.996;2023-05-07T11:33:47;60.38;43.88;78.78;;
29182;Laerm;19872;48.800;8.996;2023-05-07T11:36:13;65.35;43.95;79.49;;
29182;Laerm;19872;48.800;8.996;2023-05-07T11:38:39;58.35;41.80;73.67;;
29182;Laerm;19872;48.800;8.996;2023-05-07T11:41:05;58.88;44.58;74.70;;
29182;Laerm;19872;48.800;8.996;2023-05-07T11:43:31;60.18;45.35;73.48;;
29182;Laerm;19872;48.800;8.996;2023-05-07T11:48:32;61.18;48.88;71.08;;
29182;Laerm;19872;48.800;8.996;2023-05-07T11:53:24;60.13;47.04;71.33;;
29182;Laerm;19872;48.800;8.996;2023-05-07T11:55:56;60.80;47.84;67.35;;
29182;Laerm;19872;48.800;8.996;2023-05-07T11:58:23;59.92;48.61;71.59;;
29182;Laerm;19872;48.800;8.996;2023-05-07T12:00:50;61.37;51.42;68.00;;
29182;Laerm;19872;48.800;8.996;2023-05-07T12:03:15;61.99;52.22;69.72;;
29182;Laerm;19872;48.800;8.996;2023-05-07T12:05:43;63.54;46.69;75.85;;
29182;Laerm;19872;48.800;8.996;2023-05-07T12:08:12;61.06;49.17;68.39;;
29182;Laerm;19872;48.800;8.996;2023-05-07T12:10:42;60.15;49.22;70.92;;
29182;Laerm;19872;48.800;8.996;2023-05-07T12:13:17;60.57;46.03;66.81;;
29182;Laerm;19872;48.800;8.996;2023-05-07T12:15:43;60.68;48.23;67.02;;
29182;Laerm;19872;48.800;8.996;2023-05-07T12:18:10;61.88;53.54;76.77;;
29182;Laerm;19872;48.800;8.996;2023-05-07T12:20:36;59.81;50.19;75.15;;
29182;Laerm;19872;48.800;8.996;2023-05-07T12:23:02;62.27;50.86;71.29;;
29182;Laerm;19872;48.800;8.996;2023-05-07T12:25:35;63.55;52.05;80.68;;
29182;Laerm;19872;48.800;8.996;2023-05-07T12:28:02;60.80;53.07;71.40;;
29182;Laerm;19872;48.800;8.996;2023-05-07T12:30:30;61.63;53.97;70.17;;
29182;Laerm;19872;48.800;8.996;2023-05-07T12:32:56;63.79;58.10;71.64;;
29182;Laerm;19872;48.800;8.996;2023-05-07T12:35:31;63.41;56.63;71.15;;
29182;Laerm;19872;48.800;8.996;2023-05-07T12:37:58;63.20;54.11;69.92;;
29182;Laerm;19872;48.800;8.996;2023-05-07T12:40:38;64.23;55.07;69.42;;
29182;Laerm;19872;48.800;8.996;2023-05-07T12:43:04;62.65;50.00;69.27;;
29182;Laerm;19872;48.800;8.996;2023-05-07T12:45:30;62.68;48.51;68.11;;
29182;Laerm;19872;48.800;8.996;2023-05-07T12:47:55;62.26;52.50;68.07;;
29182;Laerm;19872;48.800;8.996;2023-05-07T12:50:22;62.91;51.80;68.50;;
29182;Laerm;19872;48.800;8.996;2023-05-07T12:52:48;61.95;48.06;66.80;;
29182;Laerm;19872;48.800;8.996;2023-05-07T12:55:15;62.83;54.70;66.54;;
29182;Laerm;19872;48.800;8.996;2023-05-07T12:57:41;61.41;49.74;67.34;;
29182;Laerm;19872;48.800;8.996;2023-05-07T13:00:08;60.84;49.17;65.78;;
29182;Laerm;19872;48.800;8.996;2023-05-07T13:02:36;65.01;56.69;72.12;;
29182;Laerm;19872;48.800;8.996;2023-05-07T13:05:03;63.91;54.40;68.93;;
29182;Laerm;19872;48.800;8.996;2023-05-07T13:07:29;63.50;47.86;70.74;;
29182;Laerm;19872;48.800;8.996;2023-05-07T13:09:54;62.34;48.74;69.26;;
29182;Laerm;19872;48.800;8.996;2023-05-07T13:12:20;61.92;47.02;67.49;;
29182;Laerm;19872;48.800;8.996;2023-05-07T13:14:46;62.41;47.51;69.69;;
29182;Laerm;19872;48.800;8.996;2023-05-07T13:17:12;61.71;53.39;67.59;;
29182;Laerm;19872;48.800;8.996;2023-05-07T13:19:38;61.60;49.75;67.12;;
29182;Laerm;19872;48.800;8.996;2023-05-07T13:22:04;59.63;47.48;66.41;;
29182;Laerm;19872;48.800;8.996;2023-05-07T13:24:30;59.73;47.83;68.09;;
29182;Laerm;19872;48.800;8.996;2023-05-07T13:26:55;60.95;49.16;66.79;;
29182;Laerm;19872;48.800;8.996;2023-05-07T13:29:21;61.90;48.74;70.74;;
29182;Laerm;19872;48.800;8.996;2023-05-07T13:31:54;59.19;47.17;65.80;;
29182;Laerm;19872;48.800;8.996;2023-05-07T13:34:19;60.34;45.28;65.36;;
29182;Laerm;19872;48.800;8.996;2023-05-07T13:36:45;57.82;44.95;64.70;;
29182;Laerm;19872;48.800;8.996;2023-05-07T13:39:11;60.20;47.12;67.07;;
29182;Laerm;19872;48.800;8.996;2023-05-07T13:41:37;60.03;48.13;66.09;;
29182;Laerm;19872;48.800;8.996;2023-05-07T13:44:03;57.44;47.23;64.13;;
29182;Laerm;19872;48.800;8.996;2023-05-07T13:46:29;63.07;50.63;71.16;;
29182;Laerm;19872;48.800;8.996;2023-05-07T13:48:55;60.17;46.72;66.24;;
29182;Laerm;19872;48.800;8.996;2023-05-07T13:51:21;60.38;47.70;67.89;;
29182;Laerm;19872;48.800;8.996;2023-05-07T13:53:47;59.40;45.78;66.64;;